Pressão mais baixa entre 7 e 10 de Abril ?

Pressão mais baixa registada entre 7 e 10 de Abril ?


  • Total voters
    38
  • Poll closed .

Minho

Cumulonimbus
Registo
6 Set 2005
Mensagens
4,091
Local
Melgaço
> 985 e <= 990
 

Thomar

Cumulonimbus
Registo
19 Dez 2007
Mensagens
2,400
Local
Cabanas - Palmela (75m)
Eu votei no intervalo dos 980 aos 985mb! Estou esperançado! :D
 

Vince

Furacão
Registo
23 Jan 2007
Mensagens
10,624
Local
Braga
Até ao momento talvez sejam estes o valores mais baixos

Ponta Delgada 08/04/2008 16:00 988 hPa
METAR LPPD 081600Z 03033G50KT 8000 -SHRA FEW012 SCT017 FEW020CB 13/09 Q0988 WS ALL RWY

Santa Maria 08/04/2008 15:00 988 hPa
METAR LPAZ 081500Z 02024G35KT 8000 -RA FEW008 BKN014 FEW020TCU BKN120 13/11 Q0988